Time;durP1;ratioP1;P1;durP2;ratioP2;P2;SDS_P1;SDS_P2;PMS_P1;PMS_P2;Temp;Humidity;BMP_temperature;BMP_pressure;BME280_temperature;BME280_humidity;BME280_pressure;Samples;Min_cycle;Max_cycle;Signal;HPM_P1;HPM_P2
2022/07/02 00:00:59;;;;;;;3.80;2.83;;;16.80;92.50;;;;;;4935047;28;102272;-70
2022/07/02 00:03:34;;;;;;;3.88;3.28;;;16.80;92.50;;;;;;4935359;28;98557;-69
2022/07/02 00:06:03;;;;;;;5.00;4.60;;;16.80;92.60;;;;;;4953252;28;99070;-70
2022/07/02 00:08:31;;;;;;;4.15;3.83;;;16.70;92.70;;;;;;4934569;28;101761;-70
2022/07/02 00:10:59;;;;;;;4.85;4.55;;;16.60;92.70;;;;;;4952744;28;99019;-69
2022/07/02 00:13:27;;;;;;;3.95;3.53;;;16.60;92.80;;;;;;4938053;28;98485;-70
2022/07/02 00:15:54;;;;;;;4.63;4.32;;;16.60;92.80;;;;;;4939381;28;97767;-70
2022/07/02 00:18:22;;;;;;;4.70;4.30;;;16.60;92.90;;;;;;4955934;28;99244;-70
2022/07/02 00:20:49;;;;;;;5.13;3.33;;;16.60;93.00;;;;;;4938401;28;99046;-70
2022/07/02 00:23:17;;;;;;;5.45;4.95;;;16.50;93.10;;;;;;4956066;28;99723;-69
2022/07/02 00:25:54;;;;;;;3.88;3.55;;;16.50;93.10;;;;;;4954777;28;98682;-69
2022/07/02 00:28:24;;;;;;;3.80;3.50;;;16.50;93.10;;;;;;4938530;28;99429;-69
2022/07/02 00:30:52;;;;;;;6.35;3.95;;;16.40;93.10;;;;;;4956010;28;98802;-69
2022/07/02 00:33:19;;;;;;;4.50;3.80;;;16.40;93.20;;;;;;4938553;28;99004;-69
2022/07/02 00:35:47;;;;;;;5.05;3.90;;;16.40;93.30;;;;;;4955635;28;98516;-70
2022/07/02 00:38:14;;;;;;;4.82;3.25;;;16.30;93.30;;;;;;4955346;28;107184;-70
2022/07/02 00:40:42;;;;;;;3.70;3.40;;;16.30;93.40;;;;;;4955791;28;98982;-69
2022/07/02 00:43:11;;;;;;;5.72;4.15;;;16.30;93.40;;;;;;4955922;28;98507;-70
2022/07/02 00:45:39;;;;;;;5.30;3.83;;;16.30;93.50;;;;;;4955521;28;98590;-70
2022/07/02 00:48:06;;;;;;;5.07;4.25;;;16.20;93.50;;;;;;4954959;28;100043;-69
2022/07/02 00:50:33;;;;;;;6.95;3.83;;;16.30;93.60;;;;;;4955091;28;99820;-70
2022/07/02 00:53:00;;;;;;;5.60;4.65;;;16.20;93.60;;;;;;4938194;28;98666;-70
2022/07/02 00:55:27;;;;;;;4.63;4.22;;;16.20;93.60;;;;;;4938212;28;98547;-69
2022/07/02 00:57:55;;;;;;;7.13;3.40;;;16.20;93.60;;;;;;4954609;28;99233;-70
2022/07/02 01:00:22;;;;;;;4.75;3.25;;;16.10;93.70;;;;;;4955288;28;99004;-70
2022/07/02 01:02:49;;;;;;;5.18;4.68;;;16.10;93.70;;;;;;4955523;28;98393;-69
2022/07/02 01:05:19;;;;;;;4.50;4.10;;;16.10;93.80;;;;;;4938429;28;97851;-70
2022/07/02 01:10:44;;;;;;;5.10;4.78;;;16.00;93.90;;;;;;4935696;28;99004;-70
2022/07/02 01:13:12;;;;;;;6.85;5.32;;;16.00;94.00;;;;;;4938085;28;99619;-69
2022/07/02 01:15:40;;;;;;;5.28;4.03;;;16.00;94.10;;;;;;4954931;28;98523;-70
2022/07/02 01:18:07;;;;;;;4.32;3.33;;;16.00;94.10;;;;;;4955045;28;99388;-69
2022/07/02 01:20:34;;;;;;;5.68;4.97;;;15.90;94.10;;;;;;4954246;28;117864;-69
2022/07/02 01:23:02;;;;;;;4.78;4.38;;;15.90;94.20;;;;;;4955103;28;98556;-69
2022/07/02 01:25:29;;;;;;;4.70;3.63;;;15.90;94.20;;;;;;4955216;28;98490;-70
2022/07/02 01:27:56;;;;;;;6.00;3.92;;;15.90;94.30;;;;;;4920557;28;101765;-69
2022/07/02 01:30:23;;;;;;;4.72;3.80;;;15.90;94.30;;;;;;4937706;28;101633;-70
2022/07/02 01:32:50;;;;;;;5.13;4.68;;;15.90;94.40;;;;;;4955148;28;98456;-69
2022/07/02 01:35:17;;;;;;;5.63;4.00;;;15.80;94.40;;;;;;4955249;28;98597;-69
2022/07/02 01:37:44;;;;;;;5.40;3.50;;;15.80;94.50;;;;;;4936280;28;101444;-69
2022/07/02 01:40:11;;;;;;;5.82;5.32;;;15.80;94.60;;;;;;4954840;28;99826;-69
2022/07/02 01:42:38;;;;;;;4.82;3.83;;;15.70;94.60;;;;;;4921401;28;98705;-70
2022/07/02 01:45:06;;;;;;;7.65;4.32;;;15.70;94.60;;;;;;4954759;28;98508;-69
2022/07/02 01:47:33;;;;;;;5.93;5.32;;;15.70;94.60;;;;;;4954641;28;99412;-69
2022/07/02 01:50:00;;;;;;;9.02;4.10;;;15.70;94.70;;;;;;4954469;28;99054;-69
2022/07/02 01:52:26;;;;;;;6.20;4.15;;;15.70;94.80;;;;;;4921237;28;98565;-70
2022/07/02 01:54:53;;;;;;;6.55;4.45;;;15.70;94.80;;;;;;4921061;28;97807;-69
2022/07/02 01:57:21;;;;;;;4.50;3.65;;;15.60;94.90;;;;;;4936055;28;101906;-69
2022/07/02 01:59:48;;;;;;;6.43;4.82;;;15.60;95.00;;;;;;4954177;28;99172;-69
2022/07/02 02:02:16;;;;;;;8.07;4.57;;;15.60;95.00;;;;;;4954779;28;99207;-69
2022/07/02 02:04:43;;;;;;;5.20;4.70;;;15.60;95.00;;;;;;4937246;28;98933;-69
2022/07/02 02:07:10;;;;;;;5.60;5.00;;;15.60;95.10;;;;;;4954226;28;99205;-69
2022/07/02 02:09:37;;;;;;;6.13;4.40;;;15.60;95.10;;;;;;4936717;28;99099;-69
2022/07/02 02:12:05;;;;;;;5.40;4.68;;;15.60;95.20;;;;;;4954903;28;99023;-69
2022/07/02 02:14:32;;;;;;;7.97;5.43;;;15.50;95.20;;;;;;4936698;28;98658;-69
2022/07/02 02:16:59;;;;;;;8.70;5.70;;;15.50;95.30;;;;;;4936701;28;99278;-69
2022/07/02 02:19:26;;;;;;;5.18;4.40;;;15.50;95.30;;;;;;4954638;28;99512;-69
2022/07/02 02:21:53;;;;;;;10.75;5.95;;;15.50;95.40;;;;;;4920584;28;98573;-70
2022/07/02 02:24:20;;;;;;;4.90;4.50;;;15.50;95.40;;;;;;4936709;28;98497;-70
2022/07/02 02:26:47;;;;;;;9.02;4.70;;;15.50;95.50;;;;;;4953547;28;100033;-69
2022/07/02 02:29:15;;;;;;;7.20;4.80;;;15.50;95.60;;;;;;4953914;28;100377;-69
2022/07/02 02:31:42;;;;;;;6.38;5.75;;;15.50;95.60;;;;;;4937075;28;98617;-70
2022/07/02 02:34:09;;;;;;;8.23;5.70;;;15.40;95.60;;;;;;4953935;28;98511;-69
2022/07/02 02:36:36;;;;;;;5.97;4.30;;;15.40;95.70;;;;;;4953446;28;99338;-69
2022/07/02 02:39:03;;;;;;;7.65;5.03;;;15.40;95.70;;;;;;4953731;28;99078;-69
2022/07/02 02:41:30;;;;;;;6.32;5.72;;;15.40;95.80;;;;;;4954205;28;98489;-69
2022/07/02 02:43:57;;;;;;;6.22;5.63;;;15.30;95.80;;;;;;4936983;28;97793;-69
2022/07/02 02:46:24;;;;;;;5.93;4.72;;;15.30;95.90;;;;;;4919885;28;102096;-69
2022/07/02 02:48:51;;;;;;;5.70;5.20;;;15.30;96.00;;;;;;4936291;28;98991;-69
2022/07/02 02:51:17;;;;;;;7.22;6.25;;;15.30;96.00;;;;;;4953623;28;99262;-69
2022/07/02 02:53:45;;;;;;;9.10;5.88;;;15.30;96.30;;;;;;4954069;28;98792;-69
2022/07/02 02:56:12;;;;;;;7.72;5.47;;;15.30;96.00;;;;;;4935778;28;99354;-69
2022/07/02 02:58:39;;;;;;;6.15;4.90;;;15.20;96.00;;;;;;4934624;28;101990;-69
2022/07/02 03:01:06;;;;;;;8.43;6.57;;;15.20;96.10;;;;;;4952115;28;98555;-70
2022/07/02 03:03:33;;;;;;;5.95;5.32;;;15.20;96.00;;;;;;4952379;28;98497;-69
2022/07/02 03:06:00;;;;;;;6.15;5.55;;;15.20;96.10;;;;;;4951507;28;99453;-69
2022/07/02 03:08:27;;;;;;;6.78;5.47;;;15.20;96.20;;;;;;4952527;28;98973;-69
2022/07/02 03:10:54;;;;;;;6.72;5.32;;;15.20;96.20;;;;;;4952264;28;98508;-69
2022/07/02 03:13:21;;;;;;;8.60;6.68;;;15.20;96.30;;;;;;4952376;28;98446;-69
2022/07/02 03:15:48;;;;;;;10.05;6.60;;;15.20;96.30;;;;;;4950887;28;121192;-69
2022/07/02 03:18:15;;;;;;;6.18;5.57;;;15.20;96.30;;;;;;4951535;28;99706;-69
2022/07/02 03:20:42;;;;;;;6.97;6.38;;;15.20;96.40;;;;;;4934385;28;98609;-70
2022/07/02 03:23:09;;;;;;;6.75;6.15;;;15.20;96.40;;;;;;4934532;28;98599;-69
2022/07/02 03:25:36;;;;;;;8.32;5.40;;;15.20;96.50;;;;;;4951655;28;99294;-69
2022/07/02 03:28:04;;;;;;;7.78;6.75;;;15.20;96.80;;;;;;4934520;28;99061;-69
2022/07/02 03:30:31;;;;;;;8.10;6.97;;;15.20;96.50;;;;;;4952155;28;98846;-69
2022/07/02 03:32:58;;;;;;;7.82;5.97;;;15.20;96.60;;;;;;4934528;28;97828;-69
2022/07/02 03:35:26;;;;;;;9.25;5.22;;;15.20;96.60;;;;;;4951898;28;99322;-69
2022/07/02 03:37:53;;;;;;;7.95;7.25;;;15.20;96.60;;;;;;4951751;28;98916;-69
2022/07/02 03:40:20;;;;;;;8.32;6.38;;;15.20;96.60;;;;;;4951368;28;99145;-69
2022/07/02 03:42:47;;;;;;;8.55;5.43;;;15.20;96.60;;;;;;4934655;28;98613;-69
2022/07/02 03:45:13;;;;;;;7.90;6.75;;;15.20;96.60;;;;;;4933817;28;101935;-69
2022/07/02 03:47:40;;;;;;;8.20;7.32;;;15.20;96.70;;;;;;4932632;28;101540;-69
2022/07/02 03:50:08;;;;;;;6.95;6.28;;;15.20;96.70;;;;;;4933966;28;98904;-70
2022/07/02 03:52:36;;;;;;;6.38;5.35;;;15.20;96.70;;;;;;4951812;28;98517;-69
2022/07/02 03:55:04;;;;;;;6.55;5.80;;;15.30;96.70;;;;;;4951177;28;99237;-69
2022/07/02 03:57:31;;;;;;;7.07;6.45;;;15.40;96.90;;;;;;4893645;28;1174021;-69
2022/07/02 03:59:57;;;;;;;5.07;4.53;;;15.80;96.80;;;;;;4935794;28;98625;-69
2022/07/02 04:02:24;;;;;;;6.78;5.85;;;16.40;96.10;;;;;;4953059;28;98737;-69
2022/07/02 04:04:53;;;;;;;6.15;5.65;;;17.00;95.20;;;;;;4952345;28;100003;-70
2022/07/02 04:07:20;;;;;;;5.75;5.25;;;17.70;94.10;;;;;;4934585;28;102248;-69
2022/07/02 04:09:47;;;;;;;7.25;6.38;;;18.20;92.80;;;;;;4935279;28;98545;-69
2022/07/02 04:12:13;;;;;;;6.38;5.78;;;18.40;92.20;;;;;;4952697;28;98583;-69
2022/07/02 04:14:40;;;;;;;6.80;6.15;;;18.40;91.90;;;;;;4934959;28;101907;-70
2022/07/02 04:17:08;;;;;;;6.15;5.30;;;18.40;91.90;;;;;;4950801;28;99029;-69
2022/07/02 04:19:35;;;;;;;7.18;6.40;;;18.20;92.00;;;;;;4953053;28;98541;-69
2022/07/02 04:22:02;;;;;;;6.50;6.05;;;18.10;92.10;;;;;;4935185;28;97783;-69
2022/07/02 04:24:29;;;;;;;6.68;6.03;;;18.10;92.20;;;;;;4934801;28;101815;-69
2022/07/02 04:26:56;;;;;;;7.50;5.00;;;18.00;92.10;;;;;;4935290;28;98996;-69
2022/07/02 04:29:23;;;;;;;6.78;6.28;;;17.90;92.20;;;;;;4952247;28;99208;-69
2022/07/02 04:31:50;;;;;;;7.97;5.72;;;17.80;92.40;;;;;;4952825;28;98478;-69
2022/07/02 04:34:17;;;;;;;8.43;5.53;;;17.80;92.40;;;;;;4934987;28;99441;-69
2022/07/02 04:36:44;;;;;;;8.18;5.32;;;17.80;92.50;;;;;;4934959;28;98911;-70
2022/07/02 04:39:11;;;;;;;7.20;6.50;;;17.70;92.60;;;;;;4952522;28;98408;-69
2022/07/02 04:41:38;;;;;;;8.30;6.82;;;17.60;92.70;;;;;;4952625;28;98499;-70
2022/07/02 04:44:05;;;;;;;6.28;5.65;;;17.60;92.80;;;;;;4952010;28;99177;-69
2022/07/02 04:46:32;;;;;;;5.82;5.22;;;17.50;93.00;;;;;;4952550;28;99607;-70
2022/07/02 04:48:59;;;;;;;8.00;7.18;;;17.50;93.20;;;;;;4952825;28;98409;-69
2022/07/02 04:51:26;;;;;;;7.97;5.95;;;17.40;93.30;;;;;;4951349;28;98496;-69
2022/07/02 04:53:56;;;;;;;8.05;7.35;;;17.30;93.50;;;;;;4951569;28;99961;-69
2022/07/02 04:56:24;;;;;;;7.35;6.63;;;17.30;93.60;;;;;;4951734;28;99758;-69
2022/07/02 04:58:51;;;;;;;8.32;7.63;;;17.30;93.80;;;;;;4936222;28;98845;-69
2022/07/02 05:01:18;;;;;;;7.30;6.40;;;17.30;94.00;;;;;;4955211;28;98517;-69
2022/07/02 05:03:45;;;;;;;8.52;6.80;;;17.30;94.10;;;;;;4955345;28;99280;-69
2022/07/02 05:06:12;;;;;;;12.70;6.45;;;17.30;94.10;;;;;;4937740;28;98828;-70
2022/07/02 05:08:39;;;;;;;6.30;5.68;;;17.40;94.10;;;;;;4956002;28;98461;-69
2022/07/02 05:11:06;;;;;;;8.25;7.05;;;17.50;94.10;;;;;;4955783;28;97766;-70
2022/07/02 05:13:33;;;;;;;7.80;6.28;;;17.60;94.10;;;;;;4955324;28;100074;-70
2022/07/02 05:16:00;;;;;;;8.40;6.57;;;17.70;94.10;;;;;;4955031;28;104423;-69
2022/07/02 05:18:27;;;;;;;5.85;5.35;;;17.70;94.10;;;;;;4954979;28;99600;-69
2022/07/02 05:20:54;;;;;;;7.50;6.85;;;17.80;94.10;;;;;;4937977;28;98972;-69
2022/07/02 05:23:21;;;;;;;7.90;7.10;;;17.80;94.10;;;;;;4921033;28;100299;-70
2022/07/02 05:25:48;;;;;;;7.40;6.10;;;17.90;94.10;;;;;;4954974;28;99072;-70
2022/07/02 05:28:15;;;;;;;8.52;6.15;;;17.90;94.10;;;;;;4937935;28;98580;-69
2022/07/02 05:30:42;;;;;;;8.45;7.68;;;18.00;94.00;;;;;;4954159;28;98566;-69
2022/07/02 05:33:09;;;;;;;7.68;6.90;;;18.10;94.00;;;;;;4954970;28;99328;-70
2022/07/02 05:35:36;;;;;;;6.75;6.07;;;18.20;93.80;;;;;;4955037;28;99035;-69
2022/07/02 05:38:03;;;;;;;6.50;5.68;;;18.30;93.60;;;;;;4955288;28;98510;-69
2022/07/02 05:40:30;;;;;;;6.05;5.55;;;18.40;93.50;;;;;;4955099;28;98641;-69
2022/07/02 05:42:56;;;;;;;7.13;5.53;;;18.50;93.40;;;;;;4954350;28;99982;-69
2022/07/02 05:45:23;;;;;;;8.43;6.32;;;18.60;93.20;;;;;;4954504;28;99858;-69
2022/07/02 05:47:50;;;;;;;5.75;5.25;;;18.80;93.00;;;;;;4937354;28;98622;-69
2022/07/02 05:50:17;;;;;;;6.78;6.10;;;19.00;92.80;;;;;;4954831;28;98600;-69
2022/07/02 05:52:45;;;;;;;7.53;6.78;;;19.20;92.40;;;;;;4953191;28;99495;-70
2022/07/02 05:55:12;;;;;;;6.68;5.28;;;19.40;92.20;;;;;;4936547;28;107298;-69
2022/07/02 05:57:39;;;;;;;4.93;4.45;;;19.50;92.00;;;;;;4954388;28;98501;-70
2022/07/02 06:00:08;;;;;;;6.75;6.13;;;19.50;91.90;;;;;;4955319;28;97751;-69
2022/07/02 06:02:35;;;;;;;8.52;4.97;;;19.70;91.50;;;;;;4953979;28;99355;-69
2022/07/02 06:07:38;;;;;;;6.70;5.88;;;19.70;91.40;;;;;;4936807;28;101768;-70
2022/07/02 06:07:51;;;;;;;4.78;4.22;;;19.90;91.20;;;;;;4940226;28;99624;-70
2022/07/02 06:10:18;;;;;;;5.28;4.22;;;20.00;91.00;;;;;;4935956;28;98571;-69
2022/07/02 06:12:50;;;;;;;5.28;4.80;;;20.30;90.60;;;;;;4954229;28;99344;-69
2022/07/02 06:15:18;;;;;;;5.45;4.97;;;20.40;90.30;;;;;;4954080;28;98841;-69
2022/07/02 06:17:46;;;;;;;5.53;3.90;;;20.50;90.30;;;;;;4936786;28;98628;-70
2022/07/02 06:20:15;;;;;;;4.88;4.57;;;20.50;90.00;;;;;;4954615;28;98685;-69
2022/07/02 06:22:49;;;;;;;5.80;4.88;;;20.40;90.00;;;;;;4954331;28;99306;-70
2022/07/02 06:25:16;;;;;;;5.45;4.18;;;20.30;89.90;;;;;;4937081;28;99199;-69
2022/07/02 06:27:42;;;;;;;5.85;3.92;;;20.30;90.00;;;;;;4954408;28;98662;-69
2022/07/02 06:30:10;;;;;;;4.53;4.00;;;20.20;90.10;;;;;;4920871;28;98978;-70
2022/07/02 06:32:37;;;;;;;4.35;3.70;;;20.20;89.80;;;;;;4953564;28;100073;-70
2022/07/02 06:35:05;;;;;;;5.07;4.05;;;20.20;89.40;;;;;;4920157;28;102368;-70
2022/07/02 06:37:32;;;;;;;6.82;5.05;;;20.20;89.50;;;;;;4936467;28;98738;-70
2022/07/02 06:39:59;;;;;;;5.63;4.75;;;20.20;89.60;;;;;;4936504;28;98592;-69
2022/07/02 06:42:31;;;;;;;3.85;3.03;;;20.30;89.20;;;;;;4935473;28;115528;-69
2022/07/02 06:44:59;;;;;;;;;;;20.30;88.80;;;;;;4936517;28;101309;-70
2022/07/02 06:47:27;;;;;;;4.88;4.45;;;20.20;88.00;;;;;;4936830;28;104977;-69
2022/07/02 06:49:56;;;;;;;2.65;2.40;;;20.20;89.00;;;;;;4954207;28;97746;-69
2022/07/02 06:52:24;;;;;;;3.50;3.20;;;20.40;88.40;;;;;;4935632;28;102108;-70
2022/07/02 06:54:51;;;;;;;1.92;1.83;;;20.60;86.40;;;;;;4936003;28;99224;-69
2022/07/02 06:57:18;;;;;;;2.78;2.03;;;20.70;84.70;;;;;;4953481;28;99751;-70
2022/07/02 06:59:51;;;;;;;4.07;2.78;;;20.90;84.40;;;;;;4953483;28;98558;-70
2022/07/02 07:02:18;;;;;;;3.88;2.17;;;20.90;83.60;;;;;;4953615;28;99344;-70
2022/07/02 07:04:45;;;;;;;4.13;1.75;;;20.90;82.70;;;;;;4953491;28;99048;-70
2022/07/02 07:07:12;;;;;;;6.20;2.40;;;20.90;83.00;;;;;;4936457;28;99041;-69
2022/07/02 07:09:40;;;;;;;3.88;2.28;;;20.90;82.50;;;;;;4936180;28;98910;-70
2022/07/02 07:12:07;;;;;;;3.40;1.65;;;20.90;82.20;;;;;;4953162;28;99271;-70
2022/07/02 07:14:35;;;;;;;4.32;3.30;;;20.90;82.60;;;;;;4953549;28;99289;-70
2022/07/02 07:17:03;;;;;;;2.15;1.83;;;20.90;82.40;;;;;;4935869;28;98583;-70
2022/07/02 07:19:30;;;;;;;3.42;3.17;;;21.00;82.40;;;;;;4935835;28;99607;-70
2022/07/02 07:21:57;;;;;;;4.25;1.60;;;21.00;82.00;;;;;;4952483;28;100041;-70
2022/07/02 07:24:24;;;;;;;3.58;2.15;;;21.00;81.80;;;;;;4935403;28;100806;-69
2022/07/02 07:26:51;;;;;;;4.22;1.77;;;21.10;81.80;;;;;;4953383;28;98471;-70
2022/07/02 07:29:19;;;;;;;2.60;1.30;;;21.10;80.80;;;;;;4950896;28;98824;-70
2022/07/02 07:31:46;;;;;;;3.58;1.77;;;21.10;79.60;;;;;;4951654;28;99545;-70
2022/07/02 07:34:13;;;;;;;5.22;1.80;;;21.20;80.20;;;;;;4953064;28;99120;-70
2022/07/02 07:36:40;;;;;;;2.13;1.38;;;21.20;81.10;;;;;;4935675;28;98563;-70
2022/07/02 07:39:07;;;;;;;2.50;1.45;;;21.30;81.60;;;;;;4953450;28;97776;-69
2022/07/02 07:41:34;;;;;;;6.40;1.20;;;21.40;79.90;;;;;;4935070;28;101862;-70
2022/07/02 07:44:03;;;;;;;3.67;1.40;;;21.50;78.50;;;;;;4952783;28;98936;-70
2022/07/02 07:46:30;;;;;;;2.67;2.17;;;21.60;77.60;;;;;;4935209;28;99335;-70
2022/07/02 07:48:58;;;;;;;1.48;1.00;;;21.80;77.70;;;;;;4953230;28;98538;-69
2022/07/02 07:51:26;;;;;;;3.10;1.60;;;22.00;76.60;;;;;;4952740;28;99903;-70
2022/07/02 07:53:53;;;;;;;1.98;1.83;;;22.20;75.60;;;;;;4934792;28;100172;-70
2022/07/02 07:56:20;;;;;;;1.83;1.30;;;22.40;75.00;;;;;;4920113;28;98606;-70
2022/07/02 07:58:48;;;;;;;2.10;1.95;;;22.70;74.00;;;;;;4952570;28;98762;-70
2022/07/02 08:01:15;;;;;;;2.20;1.98;;;23.00;73.20;;;;;;4934989;28;102136;-70
2022/07/02 08:03:54;;;;;;;3.22;2.95;;;23.40;72.20;;;;;;4953153;28;99131;-70
2022/07/02 08:06:20;;;;;;;2.92;2.30;;;23.60;70.70;;;;;;4935130;28;98577;-70
2022/07/02 08:08:59;;;;;;;2.25;2.03;;;24.40;69.90;;;;;;4952965;28;98523;-70
2022/07/02 08:11:48;;;;;;;2.42;2.10;;;25.40;67.80;;;;;;4937659;28;100054;-70
2022/07/02 08:14:14;;;;;;;2.08;1.55;;;26.60;65.70;;;;;;4935291;28;102403;-70
2022/07/02 08:17:06;;;;;;;2.38;1.48;;;27.90;62.10;;;;;;4935084;28;98561;-70
2022/07/02 08:19:36;;;;;;;1.42;1.30;;;29.20;59.10;;;;;;4872854;28;98549;-70
2022/07/02 08:22:03;;;;;;;1.60;1.50;;;30.60;55.00;;;;;;4927943;28;101847;-71
2022/07/02 08:24:30;;;;;;;2.00;1.90;;;31.80;52.10;;;;;;4952556;28;99107;-71
2022/07/02 08:26:57;;;;;;;2.25;2.13;;;32.80;47.30;;;;;;4952577;28;98521;-70
2022/07/02 08:29:24;;;;;;;1.90;1.80;;;33.60;45.50;;;;;;4935581;28;97798;-71
2022/07/02 08:31:52;;;;;;;1.30;1.25;;;34.40;43.80;;;;;;4952029;28;99340;-71
2022/07/02 08:34:19;;;;;;;2.40;2.22;;;35.10;41.50;;;;;;4954834;28;99098;-71
2022/07/02 08:36:46;;;;;;;1.58;1.48;;;35.80;40.00;;;;;;4955464;28;99791;-71
2022/07/02 08:39:12;;;;;;;1.70;1.60;;;36.50;38.70;;;;;;4955851;28;98595;-71
2022/07/02 08:41:41;;;;;;;1.38;1.02;;;37.10;37.40;;;;;;4937788;28;101781;-71
2022/07/02 08:44:08;;;;;;;1.30;1.17;;;37.50;36.30;;;;;;4955387;28;98933;-71
2022/07/02 08:46:38;;;;;;;1.55;1.45;;;37.80;36.40;;;;;;4938388;28;98602;-71
2022/07/02 08:49:07;;;;;;;2.20;2.10;;;38.30;35.20;;;;;;4955919;28;98624;-71
2022/07/02 08:51:34;;;;;;;1.23;1.13;;;38.40;34.90;;;;;;4955478;28;99186;-71
2022/07/02 08:54:01;;;;;;;2.03;1.92;;;38.60;34.30;;;;;;4938219;28;99124;-71
2022/07/02 08:56:31;;;;;;;1.58;1.48;;;38.90;33.40;;;;;;4955671;28;98845;-71
2022/07/02 08:59:00;;;;;;;1.95;1.30;;;38.90;32.80;;;;;;4955282;28;98562;-71
2022/07/02 09:01:27;;;;;;;1.33;1.17;;;39.00;32.50;;;;;;4937277;28;99908;-71
2022/07/02 09:03:55;;;;;;;1.98;1.50;;;39.10;32.70;;;;;;4937868;28;99807;-71
2022/07/02 09:06:28;;;;;;;1.08;0.98;;;39.30;31.70;;;;;;4954100;28;99171;-71
2022/07/02 09:08:55;;;;;;;2.03;1.92;;;39.20;31.30;;;;;;4955385;28;99035;-71
2022/07/02 09:11:23;;;;;;;1.80;1.70;;;39.00;31.50;;;;;;4921407;28;100392;-71
2022/07/02 09:13:51;;;;;;;1.20;0.93;;;38.60;31.60;;;;;;4954776;28;99275;-71
2022/07/02 09:16:19;;;;;;;1.35;1.25;;;38.20;32.10;;;;;;4937832;28;98483;-71
2022/07/02 09:18:46;;;;;;;2.00;0.80;;;37.40;32.40;;;;;;4955331;28;97781;-71
2022/07/02 09:21:13;;;;;;;2.40;1.75;;;36.60;32.70;;;;;;4937614;28;99417;-71
2022/07/02 09:23:47;;;;;;;1.42;1.33;;;35.90;33.80;;;;;;4937501;28;99083;-71
2022/07/02 09:26:22;;;;;;;0.70;0.70;;;35.00;34.00;;;;;;4955029;28;99824;-71
2022/07/02 09:28:59;;;;;;;1.23;0.70;;;34.10;34.30;;;;;;4936922;28;98676;-71
2022/07/02 09:31:31;;;;;;;1.73;1.58;;;33.20;35.70;;;;;;4953457;28;102073;-71
2022/07/02 09:33:59;;;;;;;1.40;0.77;;;32.50;36.60;;;;;;4954617;28;99061;-70
2022/07/02 09:36:26;;;;;;;1.55;0.93;;;31.90;37.00;;;;;;4955008;28;98606;-71
2022/07/02 09:38:54;;;;;;;1.80;1.70;;;31.30;38.20;;;;;;4937323;28;98606;-70
2022/07/02 09:41:23;;;;;;;0.90;0.68;;;30.70;38.70;;;;;;4937316;28;99719;-70
2022/07/02 09:43:59;;;;;;;3.22;1.50;;;30.30;39.20;;;;;;4954777;28;99022;-70
2022/07/02 09:46:29;;;;;;;2.33;1.67;;;30.00;40.30;;;;;;4937211;28;98576;-70
2022/07/02 09:49:07;;;;;;;1.83;1.73;;;29.50;41.20;;;;;;4954825;28;98910;-70
2022/07/02 09:51:49;;;;;;;1.27;1.00;;;29.30;41.70;;;;;;4936636;28;102506;-70
2022/07/02 09:54:23;;;;;;;2.47;1.42;;;28.90;42.00;;;;;;4954545;28;99882;-70
2022/07/02 09:57:00;;;;;;;2.03;1.08;;;28.60;42.30;;;;;;4936231;28;98458;-70
2022/07/02 09:59:34;;;;;;;3.58;1.38;;;28.40;43.40;;;;;;4954982;28;98507;-70
2022/07/02 10:02:01;;;;;;;2.05;1.85;;;28.20;43.60;;;;;;4954402;28;99306;-71
2022/07/02 10:04:30;;;;;;;1.38;1.27;;;28.10;44.50;;;;;;4953096;28;99031;-70
2022/07/02 10:06:59;;;;;;;1.50;1.40;;;28.00;44.40;;;;;;4954626;28;98545;-70
2022/07/02 10:09:26;;;;;;;3.13;1.20;;;27.90;44.60;;;;;;4954907;28;97855;-70
2022/07/02 10:11:55;;;;;;;2.03;1.80;;;27.80;44.70;;;;;;4954003;28;99420;-70
2022/07/02 10:14:25;;;;;;;1.95;1.00;;;27.70;45.30;;;;;;4936514;28;101738;-70
2022/07/02 10:16:54;;;;;;;1.60;1.00;;;27.70;45.20;;;;;;4954096;28;99313;-71
2022/07/02 10:19:22;;;;;;;2.15;1.15;;;27.70;46.00;;;;;;4954330;28;98550;-71
2022/07/02 10:21:50;;;;;;;2.15;1.15;;;27.80;45.40;;;;;;4936586;28;99255;-70
2022/07/02 10:24:23;;;;;;;1.77;1.67;;;28.00;45.30;;;;;;4937422;28;101462;-70
2022/07/02 10:26:51;;;;;;;6.53;1.20;;;28.00;45.30;;;;;;4937103;28;98436;-70
2022/07/02 10:29:18;;;;;;;1.00;0.80;;;28.20;45.10;;;;;;4954511;28;99216;-70
2022/07/02 10:31:57;;;;;;;3.30;2.30;;;28.30;45.40;;;;;;4953786;28;99447;-70
2022/07/02 10:35:01;;;;;;;2.10;1.15;;;28.30;44.60;;;;;;4954090;28;99054;-70
2022/07/02 10:37:31;;;;;;;3.72;2.00;;;28.30;45.00;;;;;;4936913;28;98480;-71
2022/07/02 10:40:02;;;;;;;1.83;1.73;;;28.20;45.50;;;;;;4953935;28;98524;-70
2022/07/02 10:42:44;;;;;;;2.05;1.58;;;28.20;45.90;;;;;;4935988;28;99973;-70
2022/07/02 10:45:14;;;;;;;1.45;1.00;;;28.40;46.00;;;;;;4953662;28;99793;-70
2022/07/02 10:48:05;;;;;;;0.80;0.80;;;28.40;46.10;;;;;;4936350;28;98498;-70
2022/07/02 10:50:35;;;;;;;2.83;1.77;;;28.50;45.00;;;;;;4954311;28;98525;-70
2022/07/02 10:53:12;;;;;;;3.42;2.00;;;28.60;45.30;;;;;;4936145;28;99303;-70
2022/07/02 10:55:42;;;;;;;1.83;1.00;;;28.70;45.00;;;;;;4953086;28;99234;-70
2022/07/02 10:58:19;;;;;;;2.40;2.00;;;28.80;45.00;;;;;;4935563;28;98636;-70
2022/07/02 11:00:46;;;;;;;2.90;1.55;;;28.90;45.20;;;;;;4937240;28;97723;-70
2022/07/02 11:03:21;;;;;;;0.93;0.80;;;29.00;45.10;;;;;;4935257;28;114019;-70
2022/07/02 11:05:54;;;;;;;2.42;0.98;;;29.10;45.00;;;;;;4935718;28;101332;-70
2022/07/02 11:08:37;;;;;;;2.25;1.83;;;29.10;44.80;;;;;;4953667;28;99224;-70
2022/07/02 11:11:04;;;;;;;1.38;0.80;;;29.10;44.80;;;;;;4935858;28;98558;-70
2022/07/02 11:13:38;;;;;;;1.92;0.82;;;29.10;45.50;;;;;;4953538;28;99931;-70
2022/07/02 11:16:21;;;;;;;2.05;1.70;;;29.20;45.10;;;;;;4935217;28;101767;-70
2022/07/02 11:18:49;;;;;;;1.40;0.80;;;29.40;44.70;;;;;;4953892;28;99032;-70
2022/07/02 11:21:17;;;;;;;2.75;1.10;;;29.60;44.80;;;;;;4935462;28;98642;-70
2022/07/02 11:23:44;;;;;;;1.45;1.10;;;29.70;44.60;;;;;;4952827;28;109765;-70
2022/07/02 11:26:25;;;;;;;2.58;2.38;;;29.90;44.00;;;;;;4935861;28;101574;-71
2022/07/02 11:28:53;;;;;;;1.55;1.00;;;30.00;43.70;;;;;;4953671;28;98472;-70
2022/07/02 11:31:22;;;;;;;1.85;1.75;;;30.00;43.80;;;;;;4953499;28;98531;-70
2022/07/02 11:33:54;;;;;;;4.03;1.90;;;30.00;43.70;;;;;;4952593;28;99984;-70
2022/07/02 11:36:26;;;;;;;2.03;1.83;;;30.00;43.60;;;;;;4953408;28;99762;-70
2022/07/02 11:38:54;;;;;;;1.73;1.60;;;30.10;44.40;;;;;;4935590;28;98545;-70
2022/07/02 11:41:48;;;;;;;2.42;2.22;;;30.30;43.50;;;;;;4935394;28;98595;-70
2022/07/02 11:44:19;;;;;;;2.05;1.15;;;30.40;44.10;;;;;;4949582;28;99280;-71
2022/07/02 11:46:50;;;;;;;3.63;1.25;;;30.40;43.10;;;;;;4935800;28;98912;-70
2022/07/02 11:49:20;;;;;;;2.55;1.48;;;30.50;42.80;;;;;;4953262;28;98527;-70
2022/07/02 11:51:49;;;;;;;2.83;1.52;;;30.70;42.70;;;;;;4953906;28;97794;-70
2022/07/02 11:54:16;;;;;;;3.15;1.85;;;30.80;42.10;;;;;;4952502;28;99290;-70
2022/07/02 11:56:46;;;;;;;1.40;1.30;;;31.00;42.30;;;;;;4952816;28;99136;-70
2022/07/02 11:59:20;;;;;;;2.45;1.00;;;31.00;42.70;;;;;;4935766;28;99384;-71
2022/07/02 12:01:49;;;;;;;1.63;1.47;;;31.00;42.40;;;;;;4953200;28;98406;-71
2022/07/02 12:04:18;;;;;;;1.63;1.05;;;30.70;42.80;;;;;;4935000;28;99212;-70
2022/07/02 12:06:47;;;;;;;2.63;1.45;;;30.50;42.40;;;;;;4934855;28;101658;-70
2022/07/02 12:09:16;;;;;;;1.80;0.77;;;30.30;42.90;;;;;;4955398;28;99072;-70
2022/07/02 12:11:45;;;;;;;1.08;1.00;;;30.10;43.40;;;;;;4956463;28;98504;-70
2022/07/02 12:14:13;;;;;;;3.70;1.70;;;30.10;43.20;;;;;;4937885;28;106468;-70
2022/07/02 12:16:44;;;;;;;2.92;1.33;;;30.10;43.10;;;;;;4922576;28;101458;-70
2022/07/02 12:19:14;;;;;;;1.58;1.00;;;30.20;43.50;;;;;;4938488;28;98581;-70
2022/07/02 12:21:46;;;;;;;1.55;1.45;;;30.20;43.70;;;;;;4938847;28;98616;-70
2022/07/02 12:24:20;;;;;;;2.72;1.98;;;30.30;43.70;;;;;;4937734;28;102746;-71
2022/07/02 12:26:49;;;;;;;1.67;1.48;;;30.30;43.00;;;;;;4955826;28;99693;-70
2022/07/02 12:32:07;;;;;;;2.67;2.35;;;30.30;42.80;;;;;;4956447;28;98531;-70
2022/07/02 12:34:41;;;;;;;1.23;1.02;;;30.50;43.60;;;;;;4938101;28;101942;-70
2022/07/02 12:37:25;;;;;;;2.30;2.08;;;30.70;43.60;;;;;;4955617;28;99169;-70
2022/07/02 12:40:03;;;;;;;3.45;1.33;;;30.70;43.20;;;;;;4954940;28;98485;-70
2022/07/02 12:42:36;;;;;;;2.53;2.35;;;30.50;43.10;;;;;;4938618;28;97798;-70
2022/07/02 12:45:05;;;;;;;2.78;1.23;;;30.40;43.70;;;;;;4955564;28;99446;-70
2022/07/02 12:47:33;;;;;;;2.28;2.08;;;30.40;43.90;;;;;;4955329;28;98981;-70
2022/07/02 12:50:02;;;;;;;1.45;1.25;;;30.50;44.00;;;;;;4955241;28;99239;-70
2022/07/02 12:52:31;;;;;;;1.20;0.68;;;30.70;44.40;;;;;;4955615;28;99513;-70
2022/07/02 12:54:58;;;;;;;2.78;1.25;;;30.80;43.00;;;;;;4955438;28;99229;-70
2022/07/02 12:57:26;;;;;;;2.47;2.00;;;30.80;42.80;;;;;;4937408;28;98990;-71
2022/07/02 12:59:53;;;;;;;4.88;1.45;;;30.80;42.80;;;;;;4955738;28;98440;-70